Lawrenceville, Virginia
Current Conditions -  °F | °C
As of 6:55 PM on Saturday 22 Nov 2014 (Local Time) from KLVL Reporting Station
Clear Clear  
Wind Chill: 38°   Ceiling: Unl
Heat Index: 38°   Visibility: 10mi
Dew Point: 21°   Wind: 0mph
Humidity: 50%   Direction: NA
Pressure: 30.35"   Gusts: NA
Location:  36.76°N, 77.85°W
Report Text: KLVL 222355Z AUTO 00000KT 10SM CLR 04/M06 A3035 RMK AO1 T00361061 10101 20018
Loading
Personal Weather Stations






























Interactive Weather Map New forecast layout! Learn more

10-Day Weather Forecast

Advertisements
Track Severe Weather on mobile